Time;durP1;ratioP1;P1;durP2;ratioP2;P2;SDS_P1;SDS_P2;PMS_P1;PMS_P2;Temp;Humidity;BMP_temperature;BMP_pressure;BME280_temperature;BME280_humidity;BME280_pressure;Samples;Min_cycle;Max_cycle;Signal;HPM_P1;HPM_P2
2023/04/26 00:02:02;;;;;;;10.90;2.70;;;5.40;98.10;;;4.70;69.30;100972.44;5095941;28;20204;-75
2023/04/26 00:04:34;;;;;;;11.37;2.70;;;5.50;97.90;;;4.48;70.63;100983.84;5095956;28;20203;-75
2023/04/26 00:07:07;;;;;;;11.73;3.20;;;5.30;98.20;;;4.52;70.24;100980.84;5095630;28;20280;-75
2023/04/26 00:09:43;;;;;;;9.97;3.57;;;5.40;98.30;;;4.45;70.68;100979.59;5095624;28;20235;-75
2023/04/26 00:12:14;;;;;;;12.03;3.17;;;5.30;98.40;;;4.57;70.34;100989.31;5095318;28;20566;-75
2023/04/26 00:14:46;;;;;;;9.90;3.00;;;5.40;98.30;;;4.51;70.58;100987.13;5095622;28;20196;-75
2023/04/26 00:17:18;;;;;;;7.63;3.00;;;5.30;98.40;;;4.59;70.63;100989.16;5095578;28;20197;-75
2023/04/26 00:19:50;;;;;;;13.00;3.43;;;5.40;98.30;;;4.63;70.25;100980.03;5096266;28;20673;-75
2023/04/26 00:22:24;;;;;;;7.60;2.80;;;5.40;98.30;;;4.45;71.29;100984.09;5095476;28;20189;-75
2023/04/26 00:24:56;;;;;;;6.03;2.77;;;5.30;98.90;;;4.32;71.65;100983.28;5095451;28;20189;-75
2023/04/26 00:27:28;;;;;;;9.17;2.83;;;5.20;98.70;;;4.44;71.29;100985.03;5095118;28;20215;-75
2023/04/26 00:30:00;;;;;;;10.13;3.33;;;5.30;98.70;;;4.36;71.14;100992.72;5097912;28;20290;-74
2023/04/26 00:32:34;;;;;;;6.70;2.80;;;5.30;98.50;;;4.38;71.17;100983.72;5098190;28;20193;-74
2023/04/26 00:35:08;;;;;;;10.37;2.93;;;5.20;98.60;;;4.39;71.36;100985.38;5097961;28;20188;-74
2023/04/26 00:37:41;;;;;;;10.50;3.57;;;5.20;98.60;;;4.39;70.93;100985.38;5097709;28;20189;-74
2023/04/26 00:40:16;;;;;;;10.03;3.30;;;5.30;98.50;;;4.39;71.35;100989.84;5098008;28;20193;-73
2023/04/26 00:42:47;;;;;;;11.63;3.30;;;5.20;98.60;;;4.39;71.29;100977.44;5096700;28;20223;-72
2023/04/26 00:45:19;;;;;;;9.17;3.43;;;5.20;98.60;;;4.41;71.52;100983.47;5095006;28;20197;-74
2023/04/26 00:47:51;;;;;;;9.80;3.20;;;5.20;98.70;;;4.43;71.06;100984.19;5094890;28;20216;-74
2023/04/26 00:50:24;;;;;;;9.33;3.27;;;5.20;98.70;;;4.44;70.38;100983.25;5095018;28;20631;-74
2023/04/26 00:52:58;;;;;;;7.67;3.30;;;5.30;98.50;;;4.48;70.91;100982.06;5094882;28;20212;-73
2023/04/26 00:55:30;;;;;;;10.07;3.33;;;5.30;98.60;;;4.39;71.09;100985.38;5094902;28;20197;-74
2023/04/26 00:58:02;;;;;;;10.73;3.40;;;5.20;98.60;;;4.30;71.20;100983.44;5094634;28;20257;-74
2023/04/26 01:00:34;;;;;;;10.93;3.50;;;5.20;98.60;;;4.29;71.33;100984.38;5094296;28;20220;-74
2023/04/26 01:03:06;;;;;;;6.97;3.13;;;5.10;98.80;;;4.29;71.72;100989.69;5094994;28;20190;-74
2023/04/26 01:05:38;;;;;;;9.67;3.63;;;5.10;99.00;;;4.18;72.08;100981.66;5094727;28;20220;-74
2023/04/26 01:08:16;;;;;;;8.80;3.63;;;5.00;99.10;;;4.15;71.96;100987.19;5094454;28;20245;-74
2023/04/26 01:10:49;;;;;;;12.00;3.17;;;5.00;98.90;;;4.12;72.28;100986.59;5094706;28;20189;-74
2023/04/26 01:13:20;;;;;;;12.57;3.40;;;5.00;99.00;;;4.04;72.45;100995.13;5094791;28;20193;-74
2023/04/26 01:15:53;;;;;;;11.83;3.10;;;4.90;99.20;;;4.03;72.15;100993.41;5094503;28;20189;-74
2023/04/26 01:18:25;;;;;;;7.20;2.50;;;4.90;99.30;;;3.97;72.71;100997.34;5094272;28;20231;-74
2023/04/26 01:20:57;;;;;;;10.37;3.17;;;4.80;99.40;;;3.98;72.30;100991.09;5094063;28;20648;-74
2023/04/26 01:23:31;;;;;;;12.27;3.33;;;4.90;99.30;;;3.90;73.02;100989.97;5094293;28;20188;-74
2023/04/26 01:26:03;;;;;;;11.83;3.13;;;4.80;99.40;;;3.87;72.73;100998.97;5094277;28;20197;-75
2023/04/26 01:28:36;;;;;;;7.10;3.13;;;4.70;99.40;;;3.93;72.91;101003.00;5094104;28;20225;-75
2023/04/26 01:31:08;;;;;;;9.77;2.90;;;4.80;99.50;;;3.97;72.07;101002.63;5094677;28;20208;-75
2023/04/26 01:33:40;;;;;;;9.90;2.87;;;4.80;99.30;;;3.99;72.00;101002.53;5094154;28;20189;-75
2023/04/26 01:36:12;;;;;;;6.80;2.93;;;4.80;99.20;;;4.00;72.12;101004.25;5094064;28;20189;-75
2023/04/26 01:38:45;;;;;;;10.00;3.27;;;4.80;99.20;;;3.83;73.31;100996.69;5093996;28;20225;-73
2023/04/26 01:41:17;;;;;;;7.57;2.90;;;4.70;99.50;;;3.75;73.43;101002.53;5093676;28;20193;-74
2023/04/26 01:43:49;;;;;;;10.57;3.00;;;4.70;99.70;;;3.80;72.91;101002.19;5093653;28;20637;-74
2023/04/26 01:46:21;;;;;;;11.43;3.30;;;4.60;99.60;;;3.77;73.01;101003.25;5093964;28;20189;-74
2023/04/26 01:48:53;;;;;;;9.53;3.47;;;4.70;99.60;;;3.85;72.93;101006.19;5093749;28;20420;-74
2023/04/26 01:51:25;;;;;;;10.37;3.40;;;4.70;99.70;;;3.93;72.52;101005.63;5093517;28;20596;-74
2023/04/26 01:53:59;;;;;;;11.50;3.33;;;4.80;99.50;;;3.94;72.00;101010.81;5092993;28;20703;-74
2023/04/26 01:56:31;;;;;;;10.17;2.97;;;4.80;99.30;;;3.80;73.07;101008.31;5093751;28;20189;-74
2023/04/26 01:59:02;;;;;;;11.70;3.07;;;4.70;99.40;;;3.71;73.07;101010.78;5093549;28;20229;-74
2023/04/26 02:01:34;;;;;;;9.30;2.90;;;4.60;99.50;;;3.61;73.86;101005.31;5093465;28;20664;-75
2023/04/26 02:04:06;;;;;;;9.17;3.00;;;4.60;99.60;;;3.68;73.70;101001.25;5093719;28;20185;-73
2023/04/26 02:06:38;;;;;;;13.97;3.00;;;4.60;99.80;;;3.75;73.29;101005.16;5093662;28;20189;-74
2023/04/26 02:09:11;;;;;;;7.50;3.20;;;4.60;99.60;;;3.81;72.81;101009.16;5093533;28;20278;-74
2023/04/26 02:11:43;;;;;;;8.53;2.77;;;4.70;99.70;;;3.71;72.92;101008.13;5093651;28;20193;-74
2023/04/26 02:14:15;;;;;;;11.97;3.57;;;4.60;99.50;;;3.74;72.79;101007.91;5093517;28;20200;-74
2023/04/26 02:16:47;;;;;;;10.00;3.30;;;4.50;99.70;;;3.65;73.56;101008.56;5093217;28;20541;-74
2023/04/26 02:19:18;;;;;;;9.37;2.87;;;4.60;99.70;;;3.64;73.98;101007.72;5093451;28;20220;-74
2023/04/26 02:21:59;;;;;;;11.60;3.33;;;4.50;99.80;;;3.68;73.17;101005.72;5093642;28;20201;-74
2023/04/26 02:24:32;;;;;;;9.57;3.37;;;4.50;99.90;;;3.71;73.25;101002.84;5093490;28;20196;-74
2023/04/26 02:27:04;;;;;;;12.57;3.30;;;4.50;99.60;;;3.66;72.76;101005.84;5093296;28;20197;-74
2023/04/26 02:29:37;;;;;;;6.70;2.90;;;4.50;99.70;;;3.67;73.18;101002.22;5093310;28;20331;-74
2023/04/26 02:32:16;;;;;;;11.50;3.90;;;4.50;99.80;;;3.67;73.27;100999.56;5093071;28;20584;-74
2023/04/26 02:34:48;;;;;;;7.50;3.10;;;4.50;99.70;;;3.57;73.72;101002.03;5093371;28;20189;-74
2023/04/26 02:37:20;;;;;;;10.37;3.37;;;4.50;99.80;;;3.55;73.14;101003.94;5093065;28;20551;-74
2023/04/26 02:39:55;;;;;;;8.67;3.33;;;4.40;99.90;;;3.58;73.19;101009.03;5094030;28;20681;-74
2023/04/26 02:42:27;;;;;;;8.37;3.30;;;4.50;99.80;;;3.45;74.22;101010.84;5093250;28;20214;-74
2023/04/26 02:44:59;;;;;;;7.87;3.10;;;4.30;99.90;;;3.51;74.14;101013.06;5093264;28;20238;-74
2023/04/26 02:47:31;;;;;;;9.47;3.40;;;4.30;99.90;;;3.35;74.29;101012.47;5092968;28;20189;-74
2023/04/26 02:50:02;;;;;;;8.30;3.60;;;4.30;99.90;;;3.27;74.63;101009.50;5093056;28;20232;-74
2023/04/26 02:52:34;;;;;;;15.13;4.00;;;4.20;99.90;;;3.17;75.65;101011.09;5093213;28;20626;-73
2023/04/26 02:55:09;;;;;;;10.70;3.43;;;4.10;99.90;;;3.21;75.46;101009.94;5093157;28;20238;-74
2023/04/26 02:57:41;;;;;;;9.63;3.50;;;4.10;99.90;;;3.25;75.11;101011.41;5092787;28;20660;-74
2023/04/26 03:00:14;;;;;;;10.73;4.40;;;4.10;99.90;;;3.25;74.67;101015.84;5092881;28;20217;-74
2023/04/26 03:02:47;;;;;;;13.40;3.90;;;4.20;99.90;;;3.32;74.39;101009.19;5093427;28;20194;-74
2023/04/26 03:05:19;;;;;;;9.00;3.77;;;4.20;99.90;;;3.24;74.98;101001.78;5096687;28;20199;-74
2023/04/26 03:07:51;;;;;;;12.17;3.70;;;4.20;99.90;;;3.22;74.89;101001.00;5096796;28;20196;-74
2023/04/26 03:10:24;;;;;;;9.67;3.43;;;4.10;99.90;;;3.27;74.72;101008.63;5096852;28;20266;-74
2023/04/26 03:12:55;;;;;;;9.33;3.00;;;4.20;99.90;;;3.25;74.26;101000.81;5097061;28;20193;-74
2023/04/26 03:15:28;;;;;;;10.33;3.30;;;4.10;99.90;;;3.11;75.22;101000.94;5098377;28;20185;-74
2023/04/26 03:17:59;;;;;;;13.50;3.67;;;4.00;99.90;;;3.10;75.68;101008.97;5100707;28;20229;-74
2023/04/26 03:20:32;;;;;;;10.00;3.70;;;4.00;99.90;;;2.95;76.09;101003.78;5100796;28;20189;-73
2023/04/26 03:23:03;;;;;;;10.30;3.97;;;3.90;99.90;;;3.03;76.05;101005.91;5100509;28;20193;-74
2023/04/26 03:25:37;;;;;;;10.60;3.87;;;3.90;99.90;;;2.99;76.08;101004.41;5099746;28;20204;-73
2023/04/26 03:28:09;;;;;;;11.17;3.50;;;3.90;99.90;;;3.04;76.21;100999.66;5100048;28;20224;-74
2023/04/26 03:30:40;;;;;;;15.30;3.50;;;4.00;99.90;;;3.00;76.83;101004.31;5097168;28;20312;-74
2023/04/26 03:33:13;;;;;;;12.60;4.00;;;3.90;99.90;;;3.02;76.17;101012.13;5096638;28;20196;-74
2023/04/26 03:35:45;;;;;;;8.57;4.10;;;3.90;99.90;;;3.08;75.98;101009.09;5096403;28;20189;-74
2023/04/26 03:38:17;;;;;;;7.80;3.23;;;4.00;99.90;;;3.13;75.53;101008.75;5096161;28;20229;-74
2023/04/26 03:40:50;;;;;;;7.33;3.77;;;4.00;99.90;;;3.04;76.27;101010.25;5096611;28;20550;-75
2023/04/26 03:43:22;;;;;;;11.40;4.10;;;4.00;99.90;;;3.00;76.08;101009.59;5096257;28;20189;-74
2023/04/26 03:45:54;;;;;;;13.20;3.60;;;4.00;99.90;;;2.93;76.52;101004.84;5096236;28;20185;-74
2023/04/26 03:48:27;;;;;;;12.07;3.47;;;3.90;99.90;;;2.92;76.73;101001.34;5096104;28;20224;-74
2023/04/26 03:50:58;;;;;;;8.97;3.40;;;3.80;99.90;;;2.86;77.74;100998.28;5096277;28;20208;-74
2023/04/26 03:53:30;;;;;;;7.33;3.70;;;3.80;99.90;;;2.87;77.08;101002.63;5096036;28;20193;-74
2023/04/26 03:56:03;;;;;;;9.17;3.83;;;3.80;99.90;;;2.97;76.07;101007.19;5096034;28;20193;-74
2023/04/26 03:58:35;;;;;;;12.33;3.93;;;3.90;99.90;;;2.93;76.18;101016.28;5095798;28;20228;-74
2023/04/26 04:01:07;;;;;;;16.77;3.47;;;3.90;99.90;;;2.98;76.02;101014.13;5095551;28;20189;-74
2023/04/26 04:03:39;;;;;;;8.53;3.43;;;3.90;99.90;;;2.95;76.60;101018.78;5095589;28;20189;-74
2023/04/26 04:06:12;;;;;;;10.03;3.73;;;3.90;99.90;;;2.92;77.16;101008.44;5095873;28;20189;-74
2023/04/26 04:08:44;;;;;;;12.70;3.30;;;3.80;99.90;;;2.93;76.99;101015.41;5095774;28;20221;-74
2023/04/26 04:11:17;;;;;;;14.07;3.93;;;3.80;99.90;;;2.87;76.71;101014.06;5095811;28;20205;-74
2023/04/26 04:13:49;;;;;;;12.60;3.90;;;3.80;99.90;;;2.82;77.24;101017.94;5095474;28;20192;-74
2023/04/26 04:16:21;;;;;;;10.07;4.17;;;3.80;99.90;;;2.72;77.76;101014.22;5095000;28;20193;-74
2023/04/26 04:18:53;;;;;;;13.77;4.20;;;3.70;99.90;;;2.79;77.31;101015.50;5095518;28;20225;-74
2023/04/26 04:21:26;;;;;;;10.23;3.87;;;3.80;99.90;;;2.75;77.54;101019.31;5095523;28;20592;-74
2023/04/26 04:23:58;;;;;;;9.20;4.00;;;3.70;99.90;;;2.69;78.18;101025.88;5095549;28;20189;-74
2023/04/26 04:26:31;;;;;;;9.67;3.63;;;3.60;99.90;;;2.69;78.11;101017.09;5095094;28;20189;-74
2023/04/26 04:29:07;;;;;;;10.43;4.17;;;3.60;99.90;;;2.73;78.28;101024.72;5095579;28;20224;-74
2023/04/26 04:31:40;;;;;;;11.27;3.60;;;3.70;99.90;;;2.78;78.02;101032.31;5095399;28;20195;-74
2023/04/26 04:34:12;;;;;;;12.50;4.10;;;3.70;99.90;;;2.76;78.19;101026.28;5095308;28;20247;-74
2023/04/26 04:36:44;;;;;;;14.57;4.20;;;3.70;99.90;;;2.83;77.56;101024.94;5095224;28;20185;-74
2023/04/26 04:39:16;;;;;;;11.70;4.23;;;3.80;99.90;;;2.84;77.70;101030.09;5094826;28;20568;-74
2023/04/26 04:41:49;;;;;;;11.47;4.00;;;3.70;99.90;;;2.86;77.70;101032.66;5095442;28;20193;-74
2023/04/26 04:44:22;;;;;;;8.77;3.57;;;3.80;99.90;;;2.81;77.80;101032.13;5095327;28;20193;-74
2023/04/26 04:46:55;;;;;;;17.60;4.47;;;3.70;99.90;;;2.80;78.13;101030.44;5094851;28;20634;-74
2023/04/26 04:49:27;;;;;;;16.20;4.50;;;3.70;99.90;;;2.79;78.18;101028.72;5095285;28;20315;-74
2023/04/26 04:51:59;;;;;;;10.60;4.40;;;3.70;99.90;;;2.86;78.27;101040.59;5094659;28;20661;-74
2023/04/26 04:54:31;;;;;;;13.77;4.33;;;3.80;99.90;;;2.82;78.21;101041.75;5094621;28;20561;-75
2023/04/26 04:57:04;;;;;;;10.93;4.17;;;3.80;99.90;;;2.94;78.28;101038.28;5094906;28;20189;-75
2023/04/26 04:59:36;;;;;;;15.40;4.10;;;3.90;99.90;;;2.91;78.07;101039.31;5094565;28;20244;-74
2023/04/26 05:02:08;;;;;;;10.47;4.57;;;3.90;99.90;;;2.97;78.24;101027.50;5094798;28;20193;-74
2023/04/26 05:04:41;;;;;;;15.17;4.63;;;4.00;99.90;;;2.97;78.08;101030.13;5094824;28;20250;-74
2023/04/26 05:07:14;;;;;;;16.60;4.53;;;3.90;99.90;;;2.99;78.31;101037.00;5094695;28;20189;-75
2023/04/26 05:09:46;;;;;;;14.07;4.47;;;4.00;99.90;;;3.06;77.88;101034.78;5094446;28;20220;-75
2023/04/26 05:12:19;;;;;;;11.37;4.37;;;4.00;99.90;;;3.09;78.61;101037.22;5094520;28;20193;-75
2023/04/26 05:14:51;;;;;;;16.93;5.57;;;4.00;99.90;;;3.12;77.89;101039.66;5094194;28;20645;-73
2023/04/26 05:17:23;;;;;;;12.27;4.03;;;4.10;99.90;;;3.15;77.60;101047.38;5094298;28;20205;-73
2023/04/26 05:19:55;;;;;;;13.17;4.90;;;4.10;99.90;;;3.12;77.68;101039.66;5094056;28;20712;-74
2023/04/26 05:22:28;;;;;;;9.20;4.63;;;4.10;99.90;;;3.07;77.81;101033.84;5094232;28;20561;-74
2023/04/26 05:25:00;;;;;;;10.20;3.70;;;4.00;99.90;;;3.14;77.33;101040.41;5094340;28;20196;-74
2023/04/26 05:27:36;;;;;;;14.80;4.50;;;4.10;99.90;;;3.13;77.53;101040.50;5093456;28;20193;-74
2023/04/26 05:30:09;;;;;;;14.00;4.10;;;4.10;99.90;;;3.17;77.33;101045.47;5094205;28;20209;-74
2023/04/26 05:32:41;;;;;;;14.17;5.23;;;4.10;99.90;;;3.16;77.47;101046.41;5094221;28;20218;-74
2023/04/26 05:35:13;;;;;;;9.63;4.00;;;4.10;99.90;;;3.20;77.29;101053.19;5093975;28;20225;-74
2023/04/26 05:37:45;;;;;;;14.20;4.73;;;4.20;99.90;;;3.13;77.41;101054.56;5094095;28;20197;-74
2023/04/26 05:40:17;;;;;;;15.00;4.80;;;4.10;99.90;;;3.18;77.58;101051.63;5094128;28;20181;-74
2023/04/26 05:42:50;;;;;;;9.17;4.00;;;4.10;99.90;;;3.21;76.66;101064.63;5094254;28;20192;-74
2023/04/26 05:45:22;;;;;;;20.27;6.33;;;4.20;99.90;;;3.16;77.33;101064.09;5095753;28;20189;-74
2023/04/26 05:47:54;;;;;;;11.77;4.60;;;4.10;99.90;;;3.10;77.42;101065.38;5095560;28;20193;-74
2023/04/26 05:50:26;;;;;;;13.97;5.07;;;4.10;99.90;;;3.18;77.69;101067.50;5095172;28;20208;-74
2023/04/26 05:52:58;;;;;;;14.63;5.40;;;4.10;99.90;;;3.24;77.84;101078.50;5094663;28;20185;-74
2023/04/26 05:55:30;;;;;;;18.40;4.83;;;4.20;99.90;;;3.30;77.85;101067.50;5096263;28;20225;-74
2023/04/26 05:58:03;;;;;;;11.40;4.77;;;4.20;99.90;;;3.38;77.34;101065.16;5096711;28;20221;-74
2023/04/26 06:00:35;;;;;;;11.20;5.00;;;4.30;99.90;;;3.42;77.27;101063.16;5096755;28;20217;-74
2023/04/26 06:03:07;;;;;;;11.30;4.67;;;4.40;99.90;;;3.50;76.89;101068.75;5097064;28;20192;-75
2023/04/26 06:05:40;;;;;;;15.63;5.03;;;4.50;99.90;;;3.53;76.30;101069.38;5096459;28;20185;-74
2023/04/26 06:08:12;;;;;;;12.40;5.23;;;4.50;99.90;;;3.59;76.14;101062.81;5096546;28;20312;-74
2023/04/26 06:10:45;;;;;;;12.40;4.30;;;4.50;99.90;;;3.60;76.61;101066.31;5096473;28;20604;-74
2023/04/26 06:13:19;;;;;;;14.60;4.17;;;4.50;99.90;;;3.68;76.28;101066.59;5096932;28;20268;-73
2023/04/26 06:15:52;;;;;;;11.50;4.67;;;4.60;99.90;;;3.72;76.03;101063.66;5095192;28;20193;-73
2023/04/26 06:18:24;;;;;;;13.67;4.70;;;4.70;99.90;;;3.76;75.35;101064.28;5093188;28;20589;-73
2023/04/26 06:20:56;;;;;;;9.73;4.57;;;4.70;99.90;;;3.79;75.23;101058.75;5093289;28;20522;-74
2023/04/26 06:23:28;;;;;;;12.47;4.47;;;4.70;99.90;;;3.88;75.34;101073.97;5093561;28;20185;-75
2023/04/26 06:26:00;;;;;;;12.10;4.33;;;4.80;99.90;;;3.94;75.09;101068.22;5093482;28;20200;-75
2023/04/26 06:28:33;;;;;;;13.27;4.43;;;4.90;99.90;;;3.99;74.73;101066.97;5093436;28;20232;-75
2023/04/26 06:31:05;;;;;;;14.13;5.00;;;4.90;99.90;;;4.06;74.87;101075.31;5093044;28;20573;-75
2023/04/26 06:33:37;;;;;;;14.70;4.27;;;5.00;99.90;;;4.11;75.21;101069.69;5093448;28;20239;-75
2023/04/26 06:36:13;;;;;;;13.63;4.80;;;5.00;99.90;;;4.15;73.81;101077.28;5093016;28;20642;-75
2023/04/26 06:38:45;;;;;;;9.90;4.00;;;5.10;99.90;;;4.21;74.62;101076.88;5094414;28;20235;-74
2023/04/26 06:41:17;;;;;;;10.27;4.33;;;5.10;99.90;;;4.27;73.16;101081.72;5097168;28;20581;-74
2023/04/26 06:43:51;;;;;;;10.27;4.53;;;5.20;99.90;;;4.32;73.42;101074.25;5097363;28;20192;-74
2023/04/26 06:46:23;;;;;;;9.90;3.90;;;5.20;99.70;;;4.42;72.70;101075.28;5097050;28;20641;-74
2023/04/26 06:48:57;;;;;;;12.27;4.03;;;5.30;99.60;;;4.51;73.29;101074.63;5096952;28;20312;-74
2023/04/26 06:51:28;;;;;;;9.50;4.20;;;5.40;99.90;;;4.54;73.98;101084.16;5097439;28;20213;-74
2023/04/26 06:54:00;;;;;;;13.57;3.70;;;5.50;99.90;;;4.64;71.45;101079.84;5097468;28;20204;-74
2023/04/26 06:56:32;;;;;;;11.90;3.93;;;5.50;99.10;;;4.69;72.02;101082.16;5097014;28;20186;-74
2023/04/26 06:59:07;;;;;;;9.10;3.90;;;5.60;99.20;;;4.81;72.50;101081.22;5096794;28;20318;-75
2023/04/26 07:01:41;;;;;;;9.93;4.00;;;5.70;99.40;;;4.92;70.79;101083.94;5096767;28;20683;-74
2023/04/26 07:04:14;;;;;;;13.80;3.50;;;5.80;98.70;;;4.92;70.21;101084.78;5096984;28;20185;-75
2023/04/26 07:06:46;;;;;;;10.07;3.97;;;5.80;98.30;;;5.05;69.85;101080.22;5096981;28;20196;-74
2023/04/26 07:09:17;;;;;;;9.30;3.40;;;5.90;98.30;;;5.04;70.50;101085.66;5096798;28;20232;-74
2023/04/26 07:11:50;;;;;;;8.63;3.27;;;5.90;98.30;;;5.11;69.80;101089.53;5096745;28;20209;-74
2023/04/26 07:14:23;;;;;;;9.63;4.10;;;6.00;98.20;;;5.18;69.53;101085.44;5096791;28;20192;-74
2023/04/26 07:16:55;;;;;;;8.90;3.47;;;6.10;97.90;;;5.26;69.11;101090.16;5096455;28;20196;-74
2023/04/26 07:19:27;;;;;;;11.03;4.37;;;6.10;97.80;;;5.32;68.61;101090.53;5096306;28;20727;-74
2023/04/26 07:21:59;;;;;;;12.47;3.90;;;6.20;97.60;;;5.32;68.43;101087.88;5096700;28;20193;-74
2023/04/26 07:24:30;;;;;;;12.20;4.00;;;6.20;97.30;;;5.41;66.99;101092.47;5096960;28;20201;-75
2023/04/26 07:27:03;;;;;;;9.50;3.73;;;6.30;97.00;;;5.48;68.08;101093.69;5096347;28;20637;-75
2023/04/26 07:29:36;;;;;;;9.03;4.10;;;6.40;97.00;;;5.53;67.56;101096.84;5096469;28;20302;-75
2023/04/26 07:32:08;;;;;;;10.63;3.63;;;6.40;97.20;;;5.59;68.15;101096.38;5096780;28;20242;-75
2023/04/26 07:34:40;;;;;;;9.67;3.50;;;6.50;97.40;;;5.57;67.55;101092.16;5096207;28;20193;-74
2023/04/26 07:37:12;;;;;;;11.73;4.30;;;6.50;96.90;;;5.63;69.47;101095.16;5096347;28;20196;-74
2023/04/26 07:39:44;;;;;;;13.17;3.90;;;6.50;97.80;;;5.74;67.20;101093.47;5096335;28;20225;-74
2023/04/26 07:42:17;;;;;;;8.67;3.20;;;6.60;96.90;;;5.82;67.58;101096.38;5096029;28;20598;-74
2023/04/26 07:44:51;;;;;;;6.73;3.33;;;6.70;97.00;;;5.80;67.81;101092.97;5096323;28;20204;-74
2023/04/26 07:47:23;;;;;;;9.73;3.50;;;6.70;96.80;;;5.87;66.82;101102.19;5096298;28;20207;-74
2023/04/26 07:49:55;;;;;;;8.67;3.23;;;6.70;96.60;;;5.88;65.61;101103.91;5095371;28;20312;-74
2023/04/26 07:52:25;;;;;;;10.53;3.53;;;6.70;96.10;;;5.89;64.86;101094.97;5096023;28;20212;-74
2023/04/26 07:54:57;;;;;;;8.23;3.63;;;6.80;95.70;;;5.91;65.57;101107.16;5096051;28;20228;-74
2023/04/26 07:57:29;;;;;;;12.07;3.40;;;6.80;96.10;;;5.95;65.82;101110.41;5096008;28;20600;-74
2023/04/26 08:00:02;;;;;;;5.63;3.30;;;6.80;96.10;;;5.98;63.93;101103.03;5095515;28;20236;-74
2023/04/26 08:02:33;;;;;;;10.13;3.70;;;6.90;95.60;;;6.03;65.14;101106.16;5095838;28;20185;-74
2023/04/26 08:05:17;;;;;;;11.63;3.90;;;6.90;95.90;;;6.12;65.91;101099.28;5095539;28;20193;-74
2023/04/26 08:07:49;;;;;;;8.37;3.57;;;7.00;96.20;;;6.20;65.19;101102.16;5095845;28;20189;-75
2023/04/26 08:10:21;;;;;;;8.63;3.53;;;6.90;95.80;;;6.19;63.98;101105.81;5095838;28;20193;-74
2023/04/26 08:12:56;;;;;;;8.67;3.73;;;7.00;95.20;;;6.32;64.95;101095.88;5095410;28;20216;-74
2023/04/26 08:15:31;;;;;;;12.20;3.83;;;7.10;95.60;;;6.38;64.54;101097.16;5095524;28;20199;-74
2023/04/26 08:18:03;;;;;;;11.17;4.00;;;7.30;95.50;;;6.40;65.18;101098.75;5095657;28;20242;-74
2023/04/26 08:20:36;;;;;;;8.60;4.10;;;7.30;95.70;;;6.42;63.25;101094.13;5095621;28;20204;-76
2023/04/26 08:23:08;;;;;;;10.07;4.17;;;7.30;94.70;;;6.39;62.63;101099.72;5095613;28;20189;-75
2023/04/26 08:25:41;;;;;;;11.37;3.50;;;7.30;94.40;;;6.46;63.73;101097.41;5095597;28;20185;-74
2023/04/26 08:28:14;;;;;;;8.57;3.50;;;7.30;95.10;;;6.59;63.23;101109.56;5095126;28;20598;-74
2023/04/26 08:30:48;;;;;;;10.07;3.23;;;7.40;94.50;;;6.71;61.61;101090.91;5095230;28;20189;-74
2023/04/26 08:33:21;;;;;;;9.47;3.73;;;7.50;94.00;;;6.73;63.37;101096.94;5095628;28;20205;-73
2023/04/26 08:35:53;;;;;;;6.93;2.60;;;7.60;94.60;;;6.66;59.48;101090.44;5095391;28;20189;-74
2023/04/26 08:38:28;;;;;;;7.90;3.10;;;7.50;92.90;;;6.81;62.07;101100.66;5095165;28;20243;-74
2023/04/26 08:41:02;;;;;;;5.60;2.60;;;7.60;93.70;;;6.93;59.17;101099.63;5094989;28;20630;-74
2023/04/26 08:43:37;;;;;;;6.73;2.70;;;7.80;92.90;;;7.06;59.05;101096.78;5095202;28;20212;-74
2023/04/26 08:46:16;;;;;;;7.23;2.87;;;7.90;92.40;;;7.17;58.71;101088.72;5094821;28;20649;-74
2023/04/26 08:48:54;;;;;;;10.13;3.40;;;8.00;92.20;;;7.14;58.61;101094.31;5094766;28;20733;-74
2023/04/26 08:51:30;;;;;;;5.97;2.77;;;8.00;91.90;;;7.14;57.61;101095.19;5095292;28;20191;-74
2023/04/26 08:54:06;;;;;;;9.70;2.90;;;8.00;92.20;;;7.16;56.94;101096.88;5095091;28;20199;-74
2023/04/26 08:56:39;;;;;;;6.83;3.03;;;8.00;91.50;;;7.24;56.75;101099.72;5094706;28;20200;-74
2023/04/26 08:59:11;;;;;;;5.67;2.67;;;8.10;91.20;;;7.25;57.72;101099.59;5094730;28;20259;-74
2023/04/26 09:01:48;;;;;;;9.93;2.57;;;8.10;91.50;;;7.30;55.15;101094.69;5094806;28;20189;-74
2023/04/26 09:04:21;;;;;;;8.30;3.00;;;8.10;90.40;;;7.44;56.10;101102.38;5094820;28;20216;-74
2023/04/26 09:06:59;;;;;;;7.60;2.90;;;8.20;90.70;;;7.51;56.61;101098.19;5094807;28;20197;-74
2023/04/26 09:09:37;;;;;;;6.13;2.40;;;8.20;90.60;;;7.36;53.64;101098.69;5094933;28;20224;-74
2023/04/26 09:12:12;;;;;;;10.97;2.83;;;8.20;87.50;;;7.32;52.90;101098.09;5094903;28;20216;-74
2023/04/26 09:14:43;;;;;;;6.13;2.27;;;8.10;86.60;;;7.32;52.19;101108.75;5094679;28;20188;-74
2023/04/26 09:17:41;;;;;;;4.13;2.33;;;8.10;86.60;;;7.45;54.29;101088.06;5094617;28;20185;-74
2023/04/26 09:20:25;;;;;;;5.03;2.23;;;8.30;88.80;;;7.59;53.90;101095.72;5094587;28;20196;-74
2023/04/26 09:23:09;;;;;;;7.33;2.73;;;8.40;87.90;;;7.68;52.30;101090.56;5094274;28;20276;-74
2023/04/26 09:25:41;;;;;;;9.37;2.70;;;8.50;86.10;;;7.74;54.45;101087.38;5094500;28;20189;-73
2023/04/26 09:28:25;;;;;;;6.20;2.60;;;8.50;88.50;;;7.82;52.03;101095.53;5094599;28;20278;-74
2023/04/26 09:30:57;;;;;;;5.93;2.30;;;8.60;85.90;;;7.82;50.70;101090.22;5094352;28;20235;-74
2023/04/26 09:33:30;;;;;;;5.20;2.50;;;8.60;84.40;;;7.79;52.28;101091.31;5094231;28;20213;-74
2023/04/26 09:36:14;;;;;;;11.10;2.60;;;8.60;84.60;;;7.72;49.45;101084.84;5094355;28;20189;-74
2023/04/26 09:38:46;;;;;;;5.57;2.20;;;8.50;81.30;;;7.73;50.46;101096.34;5094402;28;20232;-74
2023/04/26 09:41:18;;;;;;;6.40;2.70;;;8.50;82.20;;;7.81;50.46;101093.88;5094169;28;20185;-74
2023/04/26 09:43:53;;;;;;;6.47;2.53;;;8.60;82.90;;;7.90;49.55;101088.56;5094142;28;20196;-74
2023/04/26 09:46:27;;;;;;;8.73;2.50;;;8.70;81.10;;;7.98;47.86;101087.91;5094120;28;20297;-75
2023/04/26 09:49:06;;;;;;;3.37;1.90;;;8.70;79.00;;;7.99;48.49;101093.09;5093903;28;20707;-76
2023/04/26 09:51:38;;;;;;;5.93;1.93;;;8.80;78.70;;;7.96;48.46;101095.19;5093963;28;20189;-76
2023/04/26 09:54:10;;;;;;;7.13;2.27;;;8.70;79.00;;;7.93;50.61;101103.44;5093898;28;20213;-76
2023/04/26 09:56:43;;;;;;;5.27;2.00;;;8.70;80.70;;;7.97;50.38;101099.53;5093962;28;20192;-76
2023/04/26 09:59:15;;;;;;;5.03;2.10;;;8.70;82.10;;;8.00;50.16;101107.25;5093509;28;20236;-76
2023/04/26 10:01:47;;;;;;;5.30;2.23;;;8.80;83.00;;;7.96;50.96;101103.16;5093498;28;20598;-76
2023/04/26 10:04:20;;;;;;;6.07;2.47;;;8.70;83.40;;;8.03;53.17;101101.66;5093817;28;20204;-76
2023/04/26 10:06:53;;;;;;;6.10;2.50;;;8.80;87.30;;;8.01;50.18;101104.44;5094084;28;20319;-76
2023/04/26 10:09:26;;;;;;;7.73;2.70;;;8.80;83.10;;;8.01;49.88;101108.97;5093803;28;20632;-76
2023/04/26 10:12:00;;;;;;;6.40;2.50;;;8.80;82.80;;;7.99;51.76;101108.22;5093791;28;20208;-76
2023/04/26 10:14:34;;;;;;;5.23;2.40;;;8.80;83.60;;;7.93;51.54;101106.13;5093134;28;20266;-76
2023/04/26 10:17:07;;;;;;;6.07;2.87;;;8.70;83.70;;;7.96;51.74;101105.84;5093266;28;20666;-76
2023/04/26 10:19:44;;;;;;;5.87;2.50;;;8.70;84.50;;;7.92;50.69;101107.09;5093581;28;20221;-76
2023/04/26 10:22:24;;;;;;;6.60;2.43;;;8.70;83.60;;;7.92;50.90;101112.41;5093620;28;20189;-76
2023/04/26 10:24:57;;;;;;;4.83;2.50;;;8.70;83.50;;;7.92;51.08;101112.41;5093585;28;20189;-76
2023/04/26 10:27:51;;;;;;;10.40;3.07;;;8.70;84.30;;;7.88;51.85;101113.66;5093279;28;20650;-76
2023/04/26 10:30:24;;;;;;;9.43;2.70;;;8.60;84.60;;;7.94;51.94;101114.00;5093538;28;20243;-76
2023/04/26 10:33:19;;;;;;;10.27;2.90;;;8.70;84.60;;;7.95;52.41;101105.00;5093504;28;20212;-76
2023/04/26 10:36:10;;;;;;;9.30;2.70;;;8.70;85.40;;;8.07;52.92;101111.09;5094089;28;20193;-76
2023/04/26 10:38:43;;;;;;;4.67;2.77;;;8.80;86.80;;;8.18;53.70;101108.31;5094010;28;20231;-76
2023/04/26 10:41:34;;;;;;;4.77;2.40;;;8.90;87.40;;;8.29;52.71;101092.22;5093208;28;20555;-76
2023/04/26 10:44:41;;;;;;;6.03;2.43;;;9.00;85.50;;;8.41;52.42;101098.28;5093486;28;20614;-76
2023/04/26 10:47:27;;;;;;;6.63;2.50;;;9.10;86.00;;;8.51;50.71;101088.47;5093089;28;20563;-76
2023/04/26 10:50:09;;;;;;;5.07;2.30;;;9.30;83.00;;;8.52;47.01;101096.34;5093545;28;20233;-76